Mexia, Alabama
Current Conditions -  °F | °C
As of 2:53 PM on Sunday 23 Nov 2014 (Local Time) from KGZH Reporting Station
Broken Clouds Broken Clouds  
Wind Chill: 65°   Ceiling: 1900
Heat Index: 65°   Visibility: 10mi
Dew Point: 59°   Wind: 15mph
Humidity: 81%   Direction: 210°SSW
Pressure: 29.67"   Gusts: 29mph
Location:  31.51°N, 87.39°W
Report Text: KGZH 232053Z AUTO 21013G25KT 10SM BKN019 BKN025 18/15 A2967 RMK AO2 RAE08 SLP045 P0000 60014 T01830150 56011
Loading
Personal Weather Stations






























Interactive Weather Map New forecast layout! Learn more

10-Day Weather Forecast

Advertisements
Track Severe Weather on mobile